PILOTS ONLINE: 862    ATC ONLINE: 201

KSKA

Fairchild Air Force Base

Location

IATA SKA
City Spokane
Country  United States
Latitude 47° 36' 54" N
Longitude 117° 39' 21" W
Elevation 2461 ft
Type Large Airport

Map

Weather

METAR
2014/10/25 11:58
KSKA 251158Z AUTO 04006KT 10SM CLR 06/05 A2977 RMK AO2 SLP089 70001 T00630049 10081 20063 57031
TAF
2014/10/25 11:15
TAF KSKA 2511/2617 06009KT 9999 SCT160 QNH2978INS 
      BECMG 2520/2521 22015G25KT 9999 BKN070 BKN150 510009 QNH2974INS 
      BECMG 2603/2604 21025G35KT 9000 -SHRA OVC040 610605 520009 QNH2968INS 
      BECMG 2609/2610 21025G35KT 9999 NSW FEW100 520009 QNH2969INS TX16/2523Z TN03/2611Z

Runways

05/23 13901 ft / 200 ft

Outbound flights

Callsign Flying to Pilot ATD/STD ETA Aircraft

Inbound flights

Callsign Flying from Pilot ATD ETA Aircraft